sensor_id;sensor_type;location;lat;lon;timestamp;P1;durP1;ratioP1;P2;durP2;ratioP2
80411;SDS011;69749;42.684;23.360;2023-08-31T00:00:39;4.93;;;2.10;;
80411;SDS011;69749;42.684;23.360;2023-08-31T00:03:06;4.53;;;1.90;;
80411;SDS011;69749;42.684;23.360;2023-08-31T00:05:31;3.88;;;2.10;;
80411;SDS011;69749;42.684;23.360;2023-08-31T00:07:57;2.88;;;1.85;;
80411;SDS011;69749;42.684;23.360;2023-08-31T00:10:22;3.45;;;2.03;;
80411;SDS011;69749;42.684;23.360;2023-08-31T00:12:48;4.38;;;2.13;;
80411;SDS011;69749;42.684;23.360;2023-08-31T00:15:14;6.57;;;1.77;;
80411;SDS011;69749;42.684;23.360;2023-08-31T00:17:40;5.15;;;2.05;;
80411;SDS011;69749;42.684;23.360;2023-08-31T00:20:06;5.25;;;1.90;;
80411;SDS011;69749;42.684;23.360;2023-08-31T00:22:33;5.55;;;1.92;;
80411;SDS011;69749;42.684;23.360;2023-08-31T00:24:58;4.05;;;1.92;;
80411;SDS011;69749;42.684;23.360;2023-08-31T00:27:24;6.32;;;2.78;;
80411;SDS011;69749;42.684;23.360;2023-08-31T00:29:49;5.18;;;2.35;;
80411;SDS011;69749;42.684;23.360;2023-08-31T00:32:16;5.82;;;2.20;;
80411;SDS011;69749;42.684;23.360;2023-08-31T00:34:43;3.63;;;2.15;;
80411;SDS011;69749;42.684;23.360;2023-08-31T00:37:08;4.65;;;2.30;;
80411;SDS011;69749;42.684;23.360;2023-08-31T00:39:34;4.65;;;1.70;;
80411;SDS011;69749;42.684;23.360;2023-08-31T00:41:59;4.13;;;1.60;;
80411;SDS011;69749;42.684;23.360;2023-08-31T00:44:25;4.05;;;2.00;;
80411;SDS011;69749;42.684;23.360;2023-08-31T00:46:51;4.50;;;2.30;;
80411;SDS011;69749;42.684;23.360;2023-08-31T00:49:17;3.25;;;2.08;;
80411;SDS011;69749;42.684;23.360;2023-08-31T00:51:43;3.38;;;1.90;;
80411;SDS011;69749;42.684;23.360;2023-08-31T00:54:14;4.68;;;1.70;;
80411;SDS011;69749;42.684;23.360;2023-08-31T00:56:41;5.30;;;2.13;;
80411;SDS011;69749;42.684;23.360;2023-08-31T00:59:06;5.25;;;2.22;;
80411;SDS011;69749;42.684;23.360;2023-08-31T01:02:15;5.43;;;1.80;;
80411;SDS011;69749;42.684;23.360;2023-08-31T01:15:26;3.47;;;1.92;;
80411;SDS011;69749;42.684;23.360;2023-08-31T01:17:56;3.83;;;1.77;;
80411;SDS011;69749;42.684;23.360;2023-08-31T01:20:28;5.43;;;1.98;;
80411;SDS011;69749;42.684;23.360;2023-08-31T01:23:18;5.05;;;2.30;;
80411;SDS011;69749;42.684;23.360;2023-08-31T01:25:45;7.03;;;2.42;;
80411;SDS011;69749;42.684;23.360;2023-08-31T01:28:13;4.45;;;2.20;;
80411;SDS011;69749;42.684;23.360;2023-08-31T01:30:38;6.03;;;2.38;;
80411;SDS011;69749;42.684;23.360;2023-08-31T01:33:04;6.00;;;2.70;;
80411;SDS011;69749;42.684;23.360;2023-08-31T01:35:30;7.53;;;2.70;;
80411;SDS011;69749;42.684;23.360;2023-08-31T01:38:05;5.43;;;2.40;;
80411;SDS011;69749;42.684;23.360;2023-08-31T01:43:01;4.18;;;2.20;;
80411;SDS011;69749;42.684;23.360;2023-08-31T01:45:29;5.82;;;2.88;;
80411;SDS011;69749;42.684;23.360;2023-08-31T01:47:56;5.35;;;2.28;;
80411;SDS011;69749;42.684;23.360;2023-08-31T01:50:22;4.15;;;2.33;;
80411;SDS011;69749;42.684;23.360;2023-08-31T01:52:48;4.18;;;2.30;;
80411;SDS011;69749;42.684;23.360;2023-08-31T01:55:13;5.18;;;2.83;;
80411;SDS011;69749;42.684;23.360;2023-08-31T02:00:06;4.47;;;2.08;;
80411;SDS011;69749;42.684;23.360;2023-08-31T02:02:32;7.63;;;2.70;;
80411;SDS011;69749;42.684;23.360;2023-08-31T02:04:58;4.65;;;2.00;;
80411;SDS011;69749;42.684;23.360;2023-08-31T02:07:26;4.88;;;2.50;;
80411;SDS011;69749;42.684;23.360;2023-08-31T02:09:52;5.03;;;2.20;;
80411;SDS011;69749;42.684;23.360;2023-08-31T02:12:17;4.60;;;2.47;;
80411;SDS011;69749;42.684;23.360;2023-08-31T02:14:42;6.25;;;2.38;;
80411;SDS011;69749;42.684;23.360;2023-08-31T02:17:08;5.30;;;2.67;;
80411;SDS011;69749;42.684;23.360;2023-08-31T02:19:34;7.38;;;2.90;;
80411;SDS011;69749;42.684;23.360;2023-08-31T02:21:59;6.90;;;2.30;;
80411;SDS011;69749;42.684;23.360;2023-08-31T02:24:24;4.65;;;2.17;;
80411;SDS011;69749;42.684;23.360;2023-08-31T02:26:51;5.15;;;2.30;;
80411;SDS011;69749;42.684;23.360;2023-08-31T02:31:42;5.00;;;2.20;;
80411;SDS011;69749;42.684;23.360;2023-08-31T02:34:08;4.80;;;2.15;;
80411;SDS011;69749;42.684;23.360;2023-08-31T02:36:33;5.18;;;1.98;;
80411;SDS011;69749;42.684;23.360;2023-08-31T02:38:59;5.40;;;2.72;;
80411;SDS011;69749;42.684;23.360;2023-08-31T02:41:24;5.72;;;2.65;;
80411;SDS011;69749;42.684;23.360;2023-08-31T02:43:50;5.75;;;2.30;;
80411;SDS011;69749;42.684;23.360;2023-08-31T02:46:19;4.63;;;2.13;;
80411;SDS011;69749;42.684;23.360;2023-08-31T02:48:45;5.55;;;2.60;;
80411;SDS011;69749;42.684;23.360;2023-08-31T02:51:11;6.25;;;2.10;;
80411;SDS011;69749;42.684;23.360;2023-08-31T02:53:36;4.82;;;2.13;;
80411;SDS011;69749;42.684;23.360;2023-08-31T02:56:02;5.30;;;2.00;;
80411;SDS011;69749;42.684;23.360;2023-08-31T02:58:28;7.05;;;1.92;;
80411;SDS011;69749;42.684;23.360;2023-08-31T03:00:53;4.75;;;2.17;;
80411;SDS011;69749;42.684;23.360;2023-08-31T03:03:19;5.32;;;2.20;;
80411;SDS011;69749;42.684;23.360;2023-08-31T03:05:45;7.05;;;2.30;;
80411;SDS011;69749;42.684;23.360;2023-08-31T03:08:10;6.82;;;2.53;;
80411;SDS011;69749;42.684;23.360;2023-08-31T03:10:36;5.18;;;2.40;;
80411;SDS011;69749;42.684;23.360;2023-08-31T03:13:02;7.32;;;2.40;;
80411;SDS011;69749;42.684;23.360;2023-08-31T03:15:28;3.88;;;2.47;;
80411;SDS011;69749;42.684;23.360;2023-08-31T03:17:53;3.72;;;2.22;;
80411;SDS011;69749;42.684;23.360;2023-08-31T03:20:19;5.13;;;2.53;;
80411;SDS011;69749;42.684;23.360;2023-08-31T03:22:45;5.05;;;2.17;;
80411;SDS011;69749;42.684;23.360;2023-08-31T03:25:10;7.00;;;2.60;;
80411;SDS011;69749;42.684;23.360;2023-08-31T03:27:35;6.10;;;3.67;;
80411;SDS011;69749;42.684;23.360;2023-08-31T03:30:01;8.52;;;4.80;;
80411;SDS011;69749;42.684;23.360;2023-08-31T03:32:28;9.18;;;4.28;;
80411;SDS011;69749;42.684;23.360;2023-08-31T03:34:53;9.77;;;4.97;;
80411;SDS011;69749;42.684;23.360;2023-08-31T03:37:19;7.68;;;3.67;;
80411;SDS011;69749;42.684;23.360;2023-08-31T03:39:47;6.15;;;3.50;;
80411;SDS011;69749;42.684;23.360;2023-08-31T03:42:12;6.13;;;3.08;;
80411;SDS011;69749;42.684;23.360;2023-08-31T03:44:38;6.10;;;3.65;;
80411;SDS011;69749;42.684;23.360;2023-08-31T03:47:03;7.63;;;3.00;;
80411;SDS011;69749;42.684;23.360;2023-08-31T03:49:29;6.32;;;3.03;;
80411;SDS011;69749;42.684;23.360;2023-08-31T03:51:56;6.18;;;2.92;;
80411;SDS011;69749;42.684;23.360;2023-08-31T03:54:22;5.97;;;3.63;;
80411;SDS011;69749;42.684;23.360;2023-08-31T03:56:47;9.25;;;3.13;;
80411;SDS011;69749;42.684;23.360;2023-08-31T03:59:13;4.32;;;2.80;;
80411;SDS011;69749;42.684;23.360;2023-08-31T04:01:38;5.78;;;3.00;;
80411;SDS011;69749;42.684;23.360;2023-08-31T04:04:04;9.25;;;3.20;;
80411;SDS011;69749;42.684;23.360;2023-08-31T04:06:30;8.43;;;2.85;;
80411;SDS011;69749;42.684;23.360;2023-08-31T04:08:55;4.85;;;2.40;;
80411;SDS011;69749;42.684;23.360;2023-08-31T04:11:21;6.30;;;2.78;;
80411;SDS011;69749;42.684;23.360;2023-08-31T04:13:47;6.63;;;2.63;;
80411;SDS011;69749;42.684;23.360;2023-08-31T04:16:12;9.18;;;3.47;;
80411;SDS011;69749;42.684;23.360;2023-08-31T04:18:37;8.43;;;3.00;;
80411;SDS011;69749;42.684;23.360;2023-08-31T04:21:03;5.40;;;3.10;;
80411;SDS011;69749;42.684;23.360;2023-08-31T04:23:28;7.97;;;3.30;;
80411;SDS011;69749;42.684;23.360;2023-08-31T04:25:54;8.85;;;3.00;;
80411;SDS011;69749;42.684;23.360;2023-08-31T04:28:21;12.23;;;3.42;;
80411;SDS011;69749;42.684;23.360;2023-08-31T04:30:46;8.85;;;2.85;;
80411;SDS011;69749;42.684;23.360;2023-08-31T04:33:12;7.13;;;2.83;;
80411;SDS011;69749;42.684;23.360;2023-08-31T04:35:37;8.48;;;4.05;;
80411;SDS011;69749;42.684;23.360;2023-08-31T04:38:03;8.80;;;4.38;;
80411;SDS011;69749;42.684;23.360;2023-08-31T04:40:28;7.80;;;3.95;;
80411;SDS011;69749;42.684;23.360;2023-08-31T04:42:54;4.88;;;2.30;;
80411;SDS011;69749;42.684;23.360;2023-08-31T04:45:20;7.32;;;2.85;;
80411;SDS011;69749;42.684;23.360;2023-08-31T04:47:45;7.00;;;3.03;;
80411;SDS011;69749;42.684;23.360;2023-08-31T04:50:11;9.10;;;3.97;;
80411;SDS011;69749;42.684;23.360;2023-08-31T04:52:36;6.65;;;3.17;;
80411;SDS011;69749;42.684;23.360;2023-08-31T04:55:02;7.10;;;4.80;;
80411;SDS011;69749;42.684;23.360;2023-08-31T04:57:32;9.27;;;3.97;;
80411;SDS011;69749;42.684;23.360;2023-08-31T04:59:58;11.23;;;3.97;;
80411;SDS011;69749;42.684;23.360;2023-08-31T05:02:23;5.65;;;3.33;;
80411;SDS011;69749;42.684;23.360;2023-08-31T05:04:49;6.55;;;3.30;;
80411;SDS011;69749;42.684;23.360;2023-08-31T05:07:14;7.93;;;2.92;;
80411;SDS011;69749;42.684;23.360;2023-08-31T05:09:39;6.18;;;3.38;;
80411;SDS011;69749;42.684;23.360;2023-08-31T05:12:05;9.77;;;3.22;;
80411;SDS011;69749;42.684;23.360;2023-08-31T05:14:32;8.88;;;3.75;;
80411;SDS011;69749;42.684;23.360;2023-08-31T05:17:00;7.95;;;2.85;;
80411;SDS011;69749;42.684;23.360;2023-08-31T05:19:25;8.30;;;3.20;;
80411;SDS011;69749;42.684;23.360;2023-08-31T05:21:51;7.95;;;3.10;;
80411;SDS011;69749;42.684;23.360;2023-08-31T05:24:16;6.10;;;3.03;;
80411;SDS011;69749;42.684;23.360;2023-08-31T05:26:41;8.50;;;3.55;;
80411;SDS011;69749;42.684;23.360;2023-08-31T05:29:07;14.82;;;3.90;;
80411;SDS011;69749;42.684;23.360;2023-08-31T05:31:32;9.25;;;3.53;;
80411;SDS011;69749;42.684;23.360;2023-08-31T05:33:58;8.45;;;3.78;;
80411;SDS011;69749;42.684;23.360;2023-08-31T05:36:23;8.48;;;4.00;;
80411;SDS011;69749;42.684;23.360;2023-08-31T05:38:50;7.88;;;3.45;;
80411;SDS011;69749;42.684;23.360;2023-08-31T05:41:16;6.47;;;3.60;;
80411;SDS011;69749;42.684;23.360;2023-08-31T05:43:41;8.40;;;3.90;;
80411;SDS011;69749;42.684;23.360;2023-08-31T05:46:07;10.13;;;3.88;;
80411;SDS011;69749;42.684;23.360;2023-08-31T05:48:34;10.80;;;4.25;;
80411;SDS011;69749;42.684;23.360;2023-08-31T05:51:00;7.90;;;3.88;;
80411;SDS011;69749;42.684;23.360;2023-08-31T05:53:25;8.13;;;4.40;;
80411;SDS011;69749;42.684;23.360;2023-08-31T05:55:51;8.35;;;3.75;;
80411;SDS011;69749;42.684;23.360;2023-08-31T05:58:16;10.75;;;4.45;;
80411;SDS011;69749;42.684;23.360;2023-08-31T06:00:42;8.18;;;3.60;;
80411;SDS011;69749;42.684;23.360;2023-08-31T06:03:07;9.35;;;3.88;;
80411;SDS011;69749;42.684;23.360;2023-08-31T06:05:32;8.27;;;4.07;;
80411;SDS011;69749;42.684;23.360;2023-08-31T06:07:58;14.85;;;4.93;;
80411;SDS011;69749;42.684;23.360;2023-08-31T06:10:24;8.57;;;3.58;;
80411;SDS011;69749;42.684;23.360;2023-08-31T06:12:49;8.55;;;4.10;;
80411;SDS011;69749;42.684;23.360;2023-08-31T06:15:16;6.35;;;3.70;;
80411;SDS011;69749;42.684;23.360;2023-08-31T06:17:41;8.27;;;3.90;;
80411;SDS011;69749;42.684;23.360;2023-08-31T06:20:07;7.78;;;3.80;;
80411;SDS011;69749;42.684;23.360;2023-08-31T06:22:33;6.88;;;3.97;;
80411;SDS011;69749;42.684;23.360;2023-08-31T06:24:59;7.75;;;3.22;;
80411;SDS011;69749;42.684;23.360;2023-08-31T06:27:25;6.03;;;2.92;;
80411;SDS011;69749;42.684;23.360;2023-08-31T06:29:50;14.10;;;4.05;;
80411;SDS011;69749;42.684;23.360;2023-08-31T06:32:16;8.20;;;3.65;;
80411;SDS011;69749;42.684;23.360;2023-08-31T06:34:42;9.30;;;3.47;;
80411;SDS011;69749;42.684;23.360;2023-08-31T06:37:07;6.43;;;3.20;;
80411;SDS011;69749;42.684;23.360;2023-08-31T06:39:33;5.93;;;3.17;;
80411;SDS011;69749;42.684;23.360;2023-08-31T06:41:58;10.55;;;3.47;;
80411;SDS011;69749;42.684;23.360;2023-08-31T06:46:50;6.35;;;2.75;;
80411;SDS011;69749;42.684;23.360;2023-08-31T06:51:40;8.20;;;3.38;;
80411;SDS011;69749;42.684;23.360;2023-08-31T06:54:06;9.80;;;4.60;;
80411;SDS011;69749;42.684;23.360;2023-08-31T06:59:03;3.97;;;2.00;;
80411;SDS011;69749;42.684;23.360;2023-08-31T07:01:29;6.30;;;2.75;;
80411;SDS011;69749;42.684;23.360;2023-08-31T07:06:20;5.57;;;2.65;;
80411;SDS011;69749;42.684;23.360;2023-08-31T07:08:45;5.97;;;2.55;;
80411;SDS011;69749;42.684;23.360;2023-08-31T07:11:12;7.20;;;3.00;;
80411;SDS011;69749;42.684;23.360;2023-08-31T07:13:37;9.45;;;3.00;;
80411;SDS011;69749;42.684;23.360;2023-08-31T07:16:03;4.80;;;2.70;;
80411;SDS011;69749;42.684;23.360;2023-08-31T07:18:29;6.53;;;3.00;;
80411;SDS011;69749;42.684;23.360;2023-08-31T07:20:55;8.48;;;2.78;;
80411;SDS011;69749;42.684;23.360;2023-08-31T07:23:20;6.47;;;2.75;;
80411;SDS011;69749;42.684;23.360;2023-08-31T07:25:45;8.57;;;4.13;;
80411;SDS011;69749;42.684;23.360;2023-08-31T07:28:12;6.28;;;3.15;;
80411;SDS011;69749;42.684;23.360;2023-08-31T07:30:37;7.43;;;2.67;;
80411;SDS011;69749;42.684;23.360;2023-08-31T07:33:03;5.53;;;2.63;;
80411;SDS011;69749;42.684;23.360;2023-08-31T07:35:29;7.15;;;2.92;;
80411;SDS011;69749;42.684;23.360;2023-08-31T07:37:55;6.55;;;3.03;;
80411;SDS011;69749;42.684;23.360;2023-08-31T07:40:20;6.38;;;2.80;;
80411;SDS011;69749;42.684;23.360;2023-08-31T07:42:46;5.38;;;2.78;;
80411;SDS011;69749;42.684;23.360;2023-08-31T07:45:11;7.38;;;2.72;;
80411;SDS011;69749;42.684;23.360;2023-08-31T07:47:37;6.07;;;2.20;;
80411;SDS011;69749;42.684;23.360;2023-08-31T07:50:02;5.35;;;2.30;;
80411;SDS011;69749;42.684;23.360;2023-08-31T07:52:28;5.85;;;2.20;;
80411;SDS011;69749;42.684;23.360;2023-08-31T07:54:53;7.18;;;2.63;;
80411;SDS011;69749;42.684;23.360;2023-08-31T07:57:19;7.60;;;2.67;;
80411;SDS011;69749;42.684;23.360;2023-08-31T07:59:44;6.78;;;2.67;;
80411;SDS011;69749;42.684;23.360;2023-08-31T08:02:10;10.23;;;2.50;;
80411;SDS011;69749;42.684;23.360;2023-08-31T08:04:35;6.32;;;2.10;;
80411;SDS011;69749;42.684;23.360;2023-08-31T08:07:01;5.55;;;2.22;;
80411;SDS011;69749;42.684;23.360;2023-08-31T08:09:28;3.80;;;2.05;;
80411;SDS011;69749;42.684;23.360;2023-08-31T08:11:54;6.47;;;2.47;;
80411;SDS011;69749;42.684;23.360;2023-08-31T08:14:20;4.10;;;2.40;;
80411;SDS011;69749;42.684;23.360;2023-08-31T08:19:11;8.45;;;3.08;;
80411;SDS011;69749;42.684;23.360;2023-08-31T08:21:36;4.57;;;2.10;;
80411;SDS011;69749;42.684;23.360;2023-08-31T08:24:02;5.07;;;2.40;;
80411;SDS011;69749;42.684;23.360;2023-08-31T08:26:28;6.85;;;2.30;;
80411;SDS011;69749;42.684;23.360;2023-08-31T08:28:53;8.05;;;2.47;;
80411;SDS011;69749;42.684;23.360;2023-08-31T08:31:18;4.50;;;1.98;;
80411;SDS011;69749;42.684;23.360;2023-08-31T08:33:44;5.05;;;2.30;;
80411;SDS011;69749;42.684;23.360;2023-08-31T08:36:09;5.68;;;2.65;;
80411;SDS011;69749;42.684;23.360;2023-08-31T08:38:35;4.32;;;2.65;;
80411;SDS011;69749;42.684;23.360;2023-08-31T08:41:04;4.22;;;3.08;;
80411;SDS011;69749;42.684;23.360;2023-08-31T08:43:30;7.13;;;3.67;;
80411;SDS011;69749;42.684;23.360;2023-08-31T08:45:58;6.20;;;3.78;;
80411;SDS011;69749;42.684;23.360;2023-08-31T08:48:29;7.18;;;3.00;;
80411;SDS011;69749;42.684;23.360;2023-08-31T08:50:55;4.45;;;3.10;;
80411;SDS011;69749;42.684;23.360;2023-08-31T08:53:21;5.55;;;3.30;;
80411;SDS011;69749;42.684;23.360;2023-08-31T08:55:46;8.38;;;3.75;;
80411;SDS011;69749;42.684;23.360;2023-08-31T08:58:12;4.25;;;3.40;;
80411;SDS011;69749;42.684;23.360;2023-08-31T09:00:37;5.82;;;3.88;;
80411;SDS011;69749;42.684;23.360;2023-08-31T09:03:03;7.15;;;4.05;;
80411;SDS011;69749;42.684;23.360;2023-08-31T09:05:31;10.07;;;4.82;;
80411;SDS011;69749;42.684;23.360;2023-08-31T09:08:00;11.55;;;4.45;;
80411;SDS011;69749;42.684;23.360;2023-08-31T09:10:40;8.95;;;4.15;;
80411;SDS011;69749;42.684;23.360;2023-08-31T09:13:09;5.15;;;3.72;;
80411;SDS011;69749;42.684;23.360;2023-08-31T09:15:40;8.55;;;4.40;;
80411;SDS011;69749;42.684;23.360;2023-08-31T09:18:24;5.20;;;3.90;;
80411;SDS011;69749;42.684;23.360;2023-08-31T09:20:55;7.13;;;4.30;;
80411;SDS011;69749;42.684;23.360;2023-08-31T09:23:24;5.30;;;3.78;;
80411;SDS011;69749;42.684;23.360;2023-08-31T09:25:51;5.82;;;3.65;;
80411;SDS011;69749;42.684;23.360;2023-08-31T09:28:22;14.13;;;4.53;;
80411;SDS011;69749;42.684;23.360;2023-08-31T09:30:52;8.07;;;4.00;;
80411;SDS011;69749;42.684;23.360;2023-08-31T09:35:51;6.22;;;3.13;;
80411;SDS011;69749;42.684;23.360;2023-08-31T09:38:21;6.88;;;4.18;;
80411;SDS011;69749;42.684;23.360;2023-08-31T09:40:46;6.40;;;3.67;;
80411;SDS011;69749;42.684;23.360;2023-08-31T09:43:12;5.32;;;3.67;;
80411;SDS011;69749;42.684;23.360;2023-08-31T09:45:44;6.40;;;3.63;;
80411;SDS011;69749;42.684;23.360;2023-08-31T09:48:10;6.53;;;4.45;;
80411;SDS011;69749;42.684;23.360;2023-08-31T09:50:36;6.22;;;4.10;;
80411;SDS011;69749;42.684;23.360;2023-08-31T09:53:04;5.57;;;3.50;;
80411;SDS011;69749;42.684;23.360;2023-08-31T09:57:59;8.80;;;3.72;;
80411;SDS011;69749;42.684;23.360;2023-08-31T10:00:26;6.55;;;4.00;;
80411;SDS011;69749;42.684;23.360;2023-08-31T10:02:54;7.65;;;3.58;;
80411;SDS011;69749;42.684;23.360;2023-08-31T10:05:30;8.93;;;3.97;;
80411;SDS011;69749;42.684;23.360;2023-08-31T10:07:56;5.45;;;3.72;;
80411;SDS011;69749;42.684;23.360;2023-08-31T10:10:23;6.47;;;3.90;;
80411;SDS011;69749;42.684;23.360;2023-08-31T10:15:16;7.57;;;3.90;;
80411;SDS011;69749;42.684;23.360;2023-08-31T10:17:42;5.80;;;3.75;;
80411;SDS011;69749;42.684;23.360;2023-08-31T10:20:09;6.20;;;3.80;;
80411;SDS011;69749;42.684;23.360;2023-08-31T10:22:36;5.63;;;3.33;;
80411;SDS011;69749;42.684;23.360;2023-08-31T10:25:06;5.45;;;3.78;;
80411;SDS011;69749;42.684;23.360;2023-08-31T10:27:38;6.95;;;3.60;;
80411;SDS011;69749;42.684;23.360;2023-08-31T10:32:42;6.85;;;3.80;;
80411;SDS011;69749;42.684;23.360;2023-08-31T10:35:08;8.13;;;4.50;;
80411;SDS011;69749;42.684;23.360;2023-08-31T10:40:09;6.18;;;4.50;;
80411;SDS011;69749;42.684;23.360;2023-08-31T10:42:45;10.30;;;4.60;;
80411;SDS011;69749;42.684;23.360;2023-08-31T10:45:13;6.30;;;4.30;;
80411;SDS011;69749;42.684;23.360;2023-08-31T10:47:42;7.25;;;4.20;;
80411;SDS011;69749;42.684;23.360;2023-08-31T10:50:21;7.25;;;4.32;;
80411;SDS011;69749;42.684;23.360;2023-08-31T10:52:47;5.88;;;4.25;;
80411;SDS011;69749;42.684;23.360;2023-08-31T10:55:13;13.20;;;4.53;;
80411;SDS011;69749;42.684;23.360;2023-08-31T10:57:39;6.18;;;4.05;;
80411;SDS011;69749;42.684;23.360;2023-08-31T11:00:06;7.72;;;4.47;;
80411;SDS011;69749;42.684;23.360;2023-08-31T11:02:41;5.72;;;3.65;;
80411;SDS011;69749;42.684;23.360;2023-08-31T11:05:08;5.53;;;3.42;;
80411;SDS011;69749;42.684;23.360;2023-08-31T11:07:35;4.75;;;3.10;;
80411;SDS011;69749;42.684;23.360;2023-08-31T11:10:06;6.13;;;3.70;;
80411;SDS011;69749;42.684;23.360;2023-08-31T11:12:36;6.60;;;3.60;;
80411;SDS011;69749;42.684;23.360;2023-08-31T11:15:02;7.30;;;3.95;;
80411;SDS011;69749;42.684;23.360;2023-08-31T11:17:29;6.55;;;3.60;;
80411;SDS011;69749;42.684;23.360;2023-08-31T11:19:57;7.25;;;3.92;;
80411;SDS011;69749;42.684;23.360;2023-08-31T11:22:23;6.20;;;3.72;;
80411;SDS011;69749;42.684;23.360;2023-08-31T11:24:49;8.38;;;3.80;;
80411;SDS011;69749;42.684;23.360;2023-08-31T11:27:14;5.20;;;3.45;;
80411;SDS011;69749;42.684;23.360;2023-08-31T11:29:44;6.28;;;3.58;;
80411;SDS011;69749;42.684;23.360;2023-08-31T11:32:10;6.25;;;3.63;;
80411;SDS011;69749;42.684;23.360;2023-08-31T11:34:39;5.13;;;3.55;;
80411;SDS011;69749;42.684;23.360;2023-08-31T11:37:06;5.75;;;3.72;;
80411;SDS011;69749;42.684;23.360;2023-08-31T11:39:32;5.78;;;3.35;;
80411;SDS011;69749;42.684;23.360;2023-08-31T11:41:58;8.52;;;3.90;;
80411;SDS011;69749;42.684;23.360;2023-08-31T11:44:23;7.43;;;3.63;;
80411;SDS011;69749;42.684;23.360;2023-08-31T11:46:49;6.72;;;3.30;;
80411;SDS011;69749;42.684;23.360;2023-08-31T11:49:16;6.95;;;3.60;;
80411;SDS011;69749;42.684;23.360;2023-08-31T11:51:43;4.53;;;3.00;;
80411;SDS011;69749;42.684;23.360;2023-08-31T11:54:10;4.20;;;2.88;;
80411;SDS011;69749;42.684;23.360;2023-08-31T11:56:42;6.28;;;3.22;;
80411;SDS011;69749;42.684;23.360;2023-08-31T11:59:12;7.35;;;3.05;;
80411;SDS011;69749;42.684;23.360;2023-08-31T12:01:45;6.15;;;3.20;;
80411;SDS011;69749;42.684;23.360;2023-08-31T12:04:13;5.82;;;2.80;;
80411;SDS011;69749;42.684;23.360;2023-08-31T12:06:40;4.75;;;2.80;;
80411;SDS011;69749;42.684;23.360;2023-08-31T12:09:07;7.32;;;3.17;;
80411;SDS011;69749;42.684;23.360;2023-08-31T12:11:33;4.30;;;2.83;;
80411;SDS011;69749;42.684;23.360;2023-08-31T12:14:03;5.13;;;2.88;;
80411;SDS011;69749;42.684;23.360;2023-08-31T12:16:43;5.85;;;2.95;;
80411;SDS011;69749;42.684;23.360;2023-08-31T12:19:13;5.75;;;3.05;;
80411;SDS011;69749;42.684;23.360;2023-08-31T12:21:39;5.22;;;3.08;;
80411;SDS011;69749;42.684;23.360;2023-08-31T12:24:05;4.95;;;3.13;;
80411;SDS011;69749;42.684;23.360;2023-08-31T12:26:31;7.90;;;3.05;;
80411;SDS011;69749;42.684;23.360;2023-08-31T12:28:57;4.68;;;2.80;;
80411;SDS011;69749;42.684;23.360;2023-08-31T12:31:22;5.63;;;3.05;;
80411;SDS011;69749;42.684;23.360;2023-08-31T12:33:48;5.85;;;2.45;;
80411;SDS011;69749;42.684;23.360;2023-08-31T12:36:13;6.45;;;3.03;;
80411;SDS011;69749;42.684;23.360;2023-08-31T12:38:39;7.28;;;2.58;;
80411;SDS011;69749;42.684;23.360;2023-08-31T12:41:05;8.43;;;3.03;;
80411;SDS011;69749;42.684;23.360;2023-08-31T12:43:30;7.05;;;2.92;;
80411;SDS011;69749;42.684;23.360;2023-08-31T12:45:56;5.45;;;2.80;;
80411;SDS011;69749;42.684;23.360;2023-08-31T12:48:23;5.65;;;3.05;;
80411;SDS011;69749;42.684;23.360;2023-08-31T12:50:49;5.68;;;2.88;;
80411;SDS011;69749;42.684;23.360;2023-08-31T12:53:14;7.93;;;2.80;;
80411;SDS011;69749;42.684;23.360;2023-08-31T12:55:40;5.20;;;2.35;;
80411;SDS011;69749;42.684;23.360;2023-08-31T12:58:06;5.07;;;2.75;;
80411;SDS011;69749;42.684;23.360;2023-08-31T13:00:31;4.50;;;2.80;;
80411;SDS011;69749;42.684;23.360;2023-08-31T13:02:57;6.78;;;2.55;;
80411;SDS011;69749;42.684;23.360;2023-08-31T13:05:22;5.35;;;3.08;;
80411;SDS011;69749;42.684;23.360;2023-08-31T13:07:47;6.50;;;3.03;;
80411;SDS011;69749;42.684;23.360;2023-08-31T13:10:13;6.88;;;3.05;;
80411;SDS011;69749;42.684;23.360;2023-08-31T13:12:38;6.20;;;2.90;;
80411;SDS011;69749;42.684;23.360;2023-08-31T13:15:04;5.45;;;2.65;;
80411;SDS011;69749;42.684;23.360;2023-08-31T13:17:30;4.10;;;3.08;;
80411;SDS011;69749;42.684;23.360;2023-08-31T13:19:56;5.03;;;3.05;;
80411;SDS011;69749;42.684;23.360;2023-08-31T13:22:22;7.43;;;2.92;;
80411;SDS011;69749;42.684;23.360;2023-08-31T13:24:48;6.72;;;2.70;;
80411;SDS011;69749;42.684;23.360;2023-08-31T13:27:15;6.80;;;2.88;;
80411;SDS011;69749;42.684;23.360;2023-08-31T13:29:40;9.75;;;3.38;;
80411;SDS011;69749;42.684;23.360;2023-08-31T13:32:06;7.90;;;2.78;;
80411;SDS011;69749;42.684;23.360;2023-08-31T13:34:32;5.30;;;2.60;;
80411;SDS011;69749;42.684;23.360;2023-08-31T13:36:58;7.80;;;2.63;;
80411;SDS011;69749;42.684;23.360;2023-08-31T13:39:23;6.78;;;3.13;;
80411;SDS011;69749;42.684;23.360;2023-08-31T13:41:49;6.50;;;2.90;;
80411;SDS011;69749;42.684;23.360;2023-08-31T13:44:16;5.15;;;2.80;;
80411;SDS011;69749;42.684;23.360;2023-08-31T13:46:42;5.68;;;2.50;;
80411;SDS011;69749;42.684;23.360;2023-08-31T13:49:07;8.07;;;3.28;;
80411;SDS011;69749;42.684;23.360;2023-08-31T13:51:33;6.97;;;2.63;;
80411;SDS011;69749;42.684;23.360;2023-08-31T13:53:58;5.93;;;2.90;;
80411;SDS011;69749;42.684;23.360;2023-08-31T13:56:23;4.90;;;2.70;;
80411;SDS011;69749;42.684;23.360;2023-08-31T13:58:49;4.75;;;2.47;;
80411;SDS011;69749;42.684;23.360;2023-08-31T14:01:14;10.25;;;3.15;;
80411;SDS011;69749;42.684;23.360;2023-08-31T14:03:40;4.22;;;2.67;;
80411;SDS011;69749;42.684;23.360;2023-08-31T14:06:06;5.13;;;2.42;;
80411;SDS011;69749;42.684;23.360;2023-08-31T14:08:31;6.68;;;2.83;;
80411;SDS011;69749;42.684;23.360;2023-08-31T14:10:57;6.82;;;3.38;;
80411;SDS011;69749;42.684;23.360;2023-08-31T14:13:22;6.53;;;2.88;;
80411;SDS011;69749;42.684;23.360;2023-08-31T14:15:48;6.07;;;3.13;;
80411;SDS011;69749;42.684;23.360;2023-08-31T14:18:13;4.50;;;2.67;;
80411;SDS011;69749;42.684;23.360;2023-08-31T14:20:39;5.50;;;2.60;;
80411;SDS011;69749;42.684;23.360;2023-08-31T14:23:05;5.90;;;2.70;;
80411;SDS011;69749;42.684;23.360;2023-08-31T14:25:37;2.63;;;2.17;;
80411;SDS011;69749;42.684;23.360;2023-08-31T14:28:05;6.45;;;3.15;;
80411;SDS011;69749;42.684;23.360;2023-08-31T14:30:31;4.50;;;3.10;;
80411;SDS011;69749;42.684;23.360;2023-08-31T14:32:56;4.55;;;2.28;;
80411;SDS011;69749;42.684;23.360;2023-08-31T14:35:22;5.90;;;2.67;;
80411;SDS011;69749;42.684;23.360;2023-08-31T14:37:47;7.00;;;3.38;;
80411;SDS011;69749;42.684;23.360;2023-08-31T14:40:13;9.18;;;4.60;;
80411;SDS011;69749;42.684;23.360;2023-08-31T14:42:39;6.78;;;2.95;;
80411;SDS011;69749;42.684;23.360;2023-08-31T14:45:05;4.57;;;2.70;;
80411;SDS011;69749;42.684;23.360;2023-08-31T14:47:31;5.70;;;3.03;;
80411;SDS011;69749;42.684;23.360;2023-08-31T14:49:57;5.28;;;3.00;;
80411;SDS011;69749;42.684;23.360;2023-08-31T14:52:22;7.20;;;3.40;;
80411;SDS011;69749;42.684;23.360;2023-08-31T14:54:48;8.90;;;2.92;;
80411;SDS011;69749;42.684;23.360;2023-08-31T14:57:13;4.75;;;2.88;;
80411;SDS011;69749;42.684;23.360;2023-08-31T14:59:39;7.38;;;3.10;;
80411;SDS011;69749;42.684;23.360;2023-08-31T15:02:05;6.93;;;2.53;;
80411;SDS011;69749;42.684;23.360;2023-08-31T15:04:31;6.50;;;3.08;;
80411;SDS011;69749;42.684;23.360;2023-08-31T15:06:57;9.85;;;3.22;;
80411;SDS011;69749;42.684;23.360;2023-08-31T15:09:22;6.30;;;2.80;;
80411;SDS011;69749;42.684;23.360;2023-08-31T15:11:48;9.00;;;3.08;;